sensor_id;sensor_type;location;lat;lon;timestamp;P1;durP1;ratioP1;P2;durP2;ratioP2
67063;SDS011;58476;48.072;11.970;2022-10-16T00:01:15;2.17;;;0.90;;
67063;SDS011;58476;48.072;11.970;2022-10-16T00:03:42;1.70;;;1.10;;
67063;SDS011;58476;48.072;11.970;2022-10-16T00:06:09;1.10;;;1.00;;
67063;SDS011;58476;48.072;11.970;2022-10-16T00:08:35;1.20;;;1.00;;
67063;SDS011;58476;48.072;11.970;2022-10-16T00:11:02;1.15;;;1.00;;
67063;SDS011;58476;48.072;11.970;2022-10-16T00:13:28;1.25;;;0.90;;
67063;SDS011;58476;48.072;11.970;2022-10-16T00:15:58;0.80;;;0.80;;
67063;SDS011;58476;48.072;11.970;2022-10-16T00:18:24;0.60;;;0.60;;
67063;SDS011;58476;48.072;11.970;2022-10-16T00:20:50;2.05;;;0.90;;
67063;SDS011;58476;48.072;11.970;2022-10-16T00:23:16;3.28;;;1.00;;
67063;SDS011;58476;48.072;11.970;2022-10-16T00:25:41;2.47;;;0.80;;
67063;SDS011;58476;48.072;11.970;2022-10-16T00:28:07;1.63;;;1.10;;
67063;SDS011;58476;48.072;11.970;2022-10-16T00:30:32;1.38;;;1.10;;
67063;SDS011;58476;48.072;11.970;2022-10-16T00:32:57;1.10;;;1.00;;
67063;SDS011;58476;48.072;11.970;2022-10-16T00:35:23;3.05;;;0.90;;
67063;SDS011;58476;48.072;11.970;2022-10-16T00:37:48;1.00;;;0.77;;
67063;SDS011;58476;48.072;11.970;2022-10-16T00:40:14;1.15;;;0.90;;
67063;SDS011;58476;48.072;11.970;2022-10-16T00:42:39;0.70;;;0.70;;
67063;SDS011;58476;48.072;11.970;2022-10-16T00:45:04;1.15;;;0.77;;
67063;SDS011;58476;48.072;11.970;2022-10-16T00:47:32;0.82;;;0.82;;
67063;SDS011;58476;48.072;11.970;2022-10-16T00:52:52;1.73;;;1.02;;
67063;SDS011;58476;48.072;11.970;2022-10-16T00:55:19;1.38;;;0.90;;
67063;SDS011;58476;48.072;11.970;2022-10-16T00:57:45;0.90;;;0.90;;
67063;SDS011;58476;48.072;11.970;2022-10-16T01:00:13;1.27;;;0.68;;
67063;SDS011;58476;48.072;11.970;2022-10-16T01:02:42;2.47;;;1.02;;
67063;SDS011;58476;48.072;11.970;2022-10-16T01:05:07;2.40;;;1.02;;
67063;SDS011;58476;48.072;11.970;2022-10-16T01:11:00;1.77;;;0.93;;
67063;SDS011;58476;48.072;11.970;2022-10-16T01:13:37;3.50;;;0.90;;
67063;SDS011;58476;48.072;11.970;2022-10-16T01:16:15;1.38;;;0.80;;
67063;SDS011;58476;48.072;11.970;2022-10-16T01:19:05;1.95;;;0.82;;
67063;SDS011;58476;48.072;11.970;2022-10-16T01:21:50;1.27;;;0.90;;
67063;SDS011;58476;48.072;11.970;2022-10-16T01:24:31;1.83;;;0.80;;
67063;SDS011;58476;48.072;11.970;2022-10-16T01:29:48;1.63;;;1.10;;
67063;SDS011;58476;48.072;11.970;2022-10-16T01:32:27;3.28;;;1.05;;
67063;SDS011;58476;48.072;11.970;2022-10-16T01:35:05;0.95;;;0.90;;
67063;SDS011;58476;48.072;11.970;2022-10-16T01:37:40;1.65;;;1.00;;
67063;SDS011;58476;48.072;11.970;2022-10-16T01:40:14;1.10;;;0.80;;
67063;SDS011;58476;48.072;11.970;2022-10-16T01:42:44;0.90;;;0.90;;
67063;SDS011;58476;48.072;11.970;2022-10-16T01:45:13;2.75;;;1.20;;
67063;SDS011;58476;48.072;11.970;2022-10-16T01:47:41;0.90;;;0.90;;
67063;SDS011;58476;48.072;11.970;2022-10-16T01:50:08;0.98;;;0.90;;
67063;SDS011;58476;48.072;11.970;2022-10-16T01:52:37;1.58;;;0.75;;
67063;SDS011;58476;48.072;11.970;2022-10-16T01:55:05;1.17;;;0.90;;
67063;SDS011;58476;48.072;11.970;2022-10-16T01:57:33;0.70;;;0.70;;
67063;SDS011;58476;48.072;11.970;2022-10-16T02:00:04;0.85;;;0.77;;
67063;SDS011;58476;48.072;11.970;2022-10-16T02:02:37;1.30;;;1.00;;
67063;SDS011;58476;48.072;11.970;2022-10-16T02:05:11;1.02;;;0.85;;
67063;SDS011;58476;48.072;11.970;2022-10-16T02:07:43;1.25;;;0.95;;
67063;SDS011;58476;48.072;11.970;2022-10-16T02:10:09;0.85;;;0.70;;
67063;SDS011;58476;48.072;11.970;2022-10-16T02:12:36;1.13;;;0.90;;
67063;SDS011;58476;48.072;11.970;2022-10-16T02:15:05;0.90;;;0.82;;
67063;SDS011;58476;48.072;11.970;2022-10-16T02:17:32;0.85;;;0.85;;
67063;SDS011;58476;48.072;11.970;2022-10-16T02:19:57;2.50;;;1.00;;
67063;SDS011;58476;48.072;11.970;2022-10-16T02:25:03;2.63;;;0.98;;
67063;SDS011;58476;48.072;11.970;2022-10-16T02:27:34;1.45;;;0.80;;
67063;SDS011;58476;48.072;11.970;2022-10-16T02:30:11;0.73;;;0.73;;
67063;SDS011;58476;48.072;11.970;2022-10-16T02:32:53;0.90;;;0.80;;
67063;SDS011;58476;48.072;11.970;2022-10-16T02:35:20;1.00;;;0.77;;
67063;SDS011;58476;48.072;11.970;2022-10-16T02:37:48;2.15;;;1.05;;
67063;SDS011;58476;48.072;11.970;2022-10-16T02:40:15;1.60;;;0.75;;
67063;SDS011;58476;48.072;11.970;2022-10-16T02:42:41;0.90;;;0.90;;
67063;SDS011;58476;48.072;11.970;2022-10-16T02:45:07;1.02;;;1.00;;
67063;SDS011;58476;48.072;11.970;2022-10-16T02:47:34;2.10;;;0.90;;
67063;SDS011;58476;48.072;11.970;2022-10-16T02:50:00;1.02;;;0.88;;
67063;SDS011;58476;48.072;11.970;2022-10-16T02:52:26;1.70;;;0.80;;
67063;SDS011;58476;48.072;11.970;2022-10-16T02:54:51;0.80;;;0.80;;
67063;SDS011;58476;48.072;11.970;2022-10-16T02:57:16;1.20;;;0.85;;
67063;SDS011;58476;48.072;11.970;2022-10-16T02:59:42;0.70;;;0.70;;
67063;SDS011;58476;48.072;11.970;2022-10-16T03:02:08;1.52;;;0.93;;
67063;SDS011;58476;48.072;11.970;2022-10-16T03:04:33;1.00;;;0.90;;
67063;SDS011;58476;48.072;11.970;2022-10-16T03:06:59;0.77;;;0.70;;
67063;SDS011;58476;48.072;11.970;2022-10-16T03:09:24;0.80;;;0.80;;
67063;SDS011;58476;48.072;11.970;2022-10-16T03:11:49;1.80;;;1.00;;
67063;SDS011;58476;48.072;11.970;2022-10-16T03:14:15;1.08;;;0.82;;
67063;SDS011;58476;48.072;11.970;2022-10-16T03:16:42;0.80;;;0.80;;
67063;SDS011;58476;48.072;11.970;2022-10-16T03:19:07;1.17;;;0.75;;
67063;SDS011;58476;48.072;11.970;2022-10-16T03:21:32;1.38;;;0.90;;
67063;SDS011;58476;48.072;11.970;2022-10-16T03:23:58;0.95;;;0.90;;
67063;SDS011;58476;48.072;11.970;2022-10-16T03:26:23;0.90;;;0.90;;
67063;SDS011;58476;48.072;11.970;2022-10-16T03:28:48;1.45;;;1.05;;
67063;SDS011;58476;48.072;11.970;2022-10-16T03:31:14;0.90;;;0.90;;
67063;SDS011;58476;48.072;11.970;2022-10-16T03:33:39;0.98;;;0.88;;
67063;SDS011;58476;48.072;11.970;2022-10-16T03:36:04;1.48;;;1.00;;
67063;SDS011;58476;48.072;11.970;2022-10-16T03:38:30;1.15;;;1.05;;
67063;SDS011;58476;48.072;11.970;2022-10-16T03:40:55;0.85;;;0.85;;
67063;SDS011;58476;48.072;11.970;2022-10-16T03:43:21;2.28;;;1.10;;
67063;SDS011;58476;48.072;11.970;2022-10-16T03:45:47;2.15;;;0.90;;
67063;SDS011;58476;48.072;11.970;2022-10-16T03:48:12;1.10;;;0.95;;
67063;SDS011;58476;48.072;11.970;2022-10-16T03:50:37;2.67;;;1.10;;
67063;SDS011;58476;48.072;11.970;2022-10-16T03:53:03;1.20;;;1.00;;
67063;SDS011;58476;48.072;11.970;2022-10-16T03:55:28;2.80;;;0.80;;
67063;SDS011;58476;48.072;11.970;2022-10-16T03:57:54;1.58;;;0.70;;
67063;SDS011;58476;48.072;11.970;2022-10-16T04:00:19;2.25;;;0.98;;
67063;SDS011;58476;48.072;11.970;2022-10-16T04:02:44;0.80;;;0.80;;
67063;SDS011;58476;48.072;11.970;2022-10-16T04:05:10;0.75;;;0.73;;
67063;SDS011;58476;48.072;11.970;2022-10-16T04:07:36;1.60;;;0.85;;
67063;SDS011;58476;48.072;11.970;2022-10-16T04:10:02;0.82;;;0.73;;
67063;SDS011;58476;48.072;11.970;2022-10-16T04:12:28;1.13;;;1.02;;
67063;SDS011;58476;48.072;11.970;2022-10-16T04:14:53;0.70;;;0.70;;
67063;SDS011;58476;48.072;11.970;2022-10-16T04:17:18;0.75;;;0.73;;
67063;SDS011;58476;48.072;11.970;2022-10-16T04:19:44;0.80;;;0.80;;
67063;SDS011;58476;48.072;11.970;2022-10-16T04:22:09;0.88;;;0.88;;
67063;SDS011;58476;48.072;11.970;2022-10-16T04:24:34;0.98;;;0.85;;
67063;SDS011;58476;48.072;11.970;2022-10-16T04:27:00;0.80;;;0.80;;
67063;SDS011;58476;48.072;11.970;2022-10-16T04:29:25;1.25;;;0.90;;
67063;SDS011;58476;48.072;11.970;2022-10-16T04:31:51;1.10;;;0.90;;
67063;SDS011;58476;48.072;11.970;2022-10-16T04:34:16;0.77;;;0.77;;
67063;SDS011;58476;48.072;11.970;2022-10-16T04:36:41;0.82;;;0.82;;
67063;SDS011;58476;48.072;11.970;2022-10-16T04:39:07;0.75;;;0.75;;
67063;SDS011;58476;48.072;11.970;2022-10-16T04:41:32;1.00;;;0.80;;
67063;SDS011;58476;48.072;11.970;2022-10-16T04:43:58;0.80;;;0.70;;
67063;SDS011;58476;48.072;11.970;2022-10-16T04:46:23;1.75;;;0.90;;
67063;SDS011;58476;48.072;11.970;2022-10-16T04:48:48;0.82;;;0.70;;
67063;SDS011;58476;48.072;11.970;2022-10-16T04:51:14;1.02;;;0.90;;
67063;SDS011;58476;48.072;11.970;2022-10-16T04:53:39;1.88;;;0.90;;
67063;SDS011;58476;48.072;11.970;2022-10-16T04:56:04;0.75;;;0.75;;
67063;SDS011;58476;48.072;11.970;2022-10-16T04:58:31;0.80;;;0.80;;
67063;SDS011;58476;48.072;11.970;2022-10-16T05:00:59;2.78;;;0.90;;
67063;SDS011;58476;48.072;11.970;2022-10-16T05:03:24;2.45;;;0.82;;
67063;SDS011;58476;48.072;11.970;2022-10-16T05:05:49;1.80;;;1.10;;
67063;SDS011;58476;48.072;11.970;2022-10-16T05:08:15;1.40;;;0.90;;
67063;SDS011;58476;48.072;11.970;2022-10-16T05:10:41;0.80;;;0.73;;
67063;SDS011;58476;48.072;11.970;2022-10-16T05:13:08;1.25;;;0.77;;
67063;SDS011;58476;48.072;11.970;2022-10-16T05:15:33;2.28;;;0.80;;
67063;SDS011;58476;48.072;11.970;2022-10-16T05:17:59;7.03;;;1.20;;
67063;SDS011;58476;48.072;11.970;2022-10-16T05:20:24;6.03;;;0.90;;
67063;SDS011;58476;48.072;11.970;2022-10-16T05:22:49;4.28;;;1.00;;
67063;SDS011;58476;48.072;11.970;2022-10-16T05:25:15;3.75;;;1.00;;
67063;SDS011;58476;48.072;11.970;2022-10-16T05:27:40;1.63;;;0.95;;
67063;SDS011;58476;48.072;11.970;2022-10-16T05:30:06;3.80;;;0.90;;
67063;SDS011;58476;48.072;11.970;2022-10-16T05:32:32;1.70;;;0.90;;
67063;SDS011;58476;48.072;11.970;2022-10-16T05:34:57;5.13;;;1.00;;
67063;SDS011;58476;48.072;11.970;2022-10-16T05:37:22;4.57;;;1.25;;
67063;SDS011;58476;48.072;11.970;2022-10-16T05:39:48;2.00;;;1.00;;
67063;SDS011;58476;48.072;11.970;2022-10-16T05:42:13;4.47;;;0.80;;
67063;SDS011;58476;48.072;11.970;2022-10-16T05:44:38;1.20;;;0.88;;
67063;SDS011;58476;48.072;11.970;2022-10-16T05:47:04;1.10;;;0.90;;
67063;SDS011;58476;48.072;11.970;2022-10-16T05:49:29;1.52;;;1.42;;
67063;SDS011;58476;48.072;11.970;2022-10-16T05:51:54;2.42;;;1.10;;
67063;SDS011;58476;48.072;11.970;2022-10-16T05:54:20;3.03;;;0.73;;
67063;SDS011;58476;48.072;11.970;2022-10-16T05:56:45;4.70;;;1.00;;
67063;SDS011;58476;48.072;11.970;2022-10-16T05:59:10;3.47;;;0.95;;
67063;SDS011;58476;48.072;11.970;2022-10-16T06:01:36;2.97;;;1.00;;
67063;SDS011;58476;48.072;11.970;2022-10-16T06:04:02;4.55;;;1.13;;
67063;SDS011;58476;48.072;11.970;2022-10-16T06:06:29;3.65;;;1.23;;
67063;SDS011;58476;48.072;11.970;2022-10-16T06:08:55;5.13;;;1.10;;
67063;SDS011;58476;48.072;11.970;2022-10-16T06:11:25;3.53;;;1.00;;
67063;SDS011;58476;48.072;11.970;2022-10-16T06:16:18;8.07;;;1.10;;
67063;SDS011;58476;48.072;11.970;2022-10-16T06:18:44;6.35;;;1.20;;
67063;SDS011;58476;48.072;11.970;2022-10-16T06:21:10;6.22;;;1.40;;
67063;SDS011;58476;48.072;11.970;2022-10-16T06:23:38;3.40;;;1.10;;
67063;SDS011;58476;48.072;11.970;2022-10-16T06:26:13;6.40;;;1.38;;
67063;SDS011;58476;48.072;11.970;2022-10-16T06:28:40;2.97;;;1.10;;
67063;SDS011;58476;48.072;11.970;2022-10-16T06:31:06;3.60;;;1.20;;
67063;SDS011;58476;48.072;11.970;2022-10-16T06:33:33;6.93;;;2.95;;
67063;SDS011;58476;48.072;11.970;2022-10-16T06:38:28;6.18;;;1.08;;
67063;SDS011;58476;48.072;11.970;2022-10-16T06:40:53;3.83;;;1.30;;
67063;SDS011;58476;48.072;11.970;2022-10-16T06:43:18;7.72;;;1.30;;
67063;SDS011;58476;48.072;11.970;2022-10-16T06:45:49;5.60;;;1.40;;
67063;SDS011;58476;48.072;11.970;2022-10-16T06:48:22;5.25;;;1.40;;
67063;SDS011;58476;48.072;11.970;2022-10-16T06:51:01;9.00;;;1.70;;
67063;SDS011;58476;48.072;11.970;2022-10-16T06:53:30;11.13;;;1.52;;
67063;SDS011;58476;48.072;11.970;2022-10-16T06:55:57;4.88;;;1.33;;
67063;SDS011;58476;48.072;11.970;2022-10-16T06:58:23;10.93;;;1.83;;
67063;SDS011;58476;48.072;11.970;2022-10-16T07:00:49;7.15;;;1.65;;
67063;SDS011;58476;48.072;11.970;2022-10-16T07:03:20;9.10;;;1.92;;
67063;SDS011;58476;48.072;11.970;2022-10-16T07:05:46;5.88;;;1.50;;
67063;SDS011;58476;48.072;11.970;2022-10-16T07:08:11;11.50;;;2.30;;
67063;SDS011;58476;48.072;11.970;2022-10-16T07:10:36;7.43;;;1.80;;
67063;SDS011;58476;48.072;11.970;2022-10-16T07:13:02;8.90;;;2.00;;
67063;SDS011;58476;48.072;11.970;2022-10-16T07:15:27;6.97;;;2.35;;
67063;SDS011;58476;48.072;11.970;2022-10-16T07:17:55;4.80;;;1.88;;
67063;SDS011;58476;48.072;11.970;2022-10-16T07:20:20;21.27;;;2.97;;
67063;SDS011;58476;48.072;11.970;2022-10-16T07:22:46;15.90;;;2.30;;
67063;SDS011;58476;48.072;11.970;2022-10-16T07:25:11;14.35;;;1.75;;
67063;SDS011;58476;48.072;11.970;2022-10-16T07:27:37;8.65;;;1.65;;
67063;SDS011;58476;48.072;11.970;2022-10-16T07:30:02;7.47;;;1.80;;
67063;SDS011;58476;48.072;11.970;2022-10-16T07:32:28;10.10;;;1.88;;
67063;SDS011;58476;48.072;11.970;2022-10-16T07:34:54;13.32;;;2.58;;
67063;SDS011;58476;48.072;11.970;2022-10-16T07:37:19;7.57;;;1.77;;
67063;SDS011;58476;48.072;11.970;2022-10-16T07:39:44;10.80;;;1.98;;
67063;SDS011;58476;48.072;11.970;2022-10-16T07:42:10;6.15;;;1.90;;
67063;SDS011;58476;48.072;11.970;2022-10-16T07:44:35;5.93;;;2.03;;
67063;SDS011;58476;48.072;11.970;2022-10-16T07:47:01;10.20;;;2.10;;
67063;SDS011;58476;48.072;11.970;2022-10-16T07:49:26;4.85;;;1.85;;
67063;SDS011;58476;48.072;11.970;2022-10-16T07:51:51;5.25;;;1.50;;
67063;SDS011;58476;48.072;11.970;2022-10-16T07:54:17;10.35;;;2.05;;
67063;SDS011;58476;48.072;11.970;2022-10-16T07:56:42;4.97;;;1.83;;
67063;SDS011;58476;48.072;11.970;2022-10-16T07:59:08;6.78;;;1.60;;
67063;SDS011;58476;48.072;11.970;2022-10-16T08:01:33;7.47;;;1.98;;
67063;SDS011;58476;48.072;11.970;2022-10-16T08:03:58;6.70;;;1.60;;
67063;SDS011;58476;48.072;11.970;2022-10-16T08:06:24;3.40;;;1.33;;
67063;SDS011;58476;48.072;11.970;2022-10-16T08:08:49;7.13;;;1.83;;
67063;SDS011;58476;48.072;11.970;2022-10-16T08:11:15;5.18;;;1.58;;
67063;SDS011;58476;48.072;11.970;2022-10-16T08:13:42;2.72;;;1.20;;
67063;SDS011;58476;48.072;11.970;2022-10-16T08:16:07;6.95;;;1.60;;
67063;SDS011;58476;48.072;11.970;2022-10-16T08:18:39;8.40;;;1.70;;
67063;SDS011;58476;48.072;11.970;2022-10-16T08:21:06;9.02;;;1.73;;
67063;SDS011;58476;48.072;11.970;2022-10-16T08:23:33;7.55;;;1.67;;
67063;SDS011;58476;48.072;11.970;2022-10-16T08:26:02;6.18;;;1.40;;
67063;SDS011;58476;48.072;11.970;2022-10-16T08:28:30;5.60;;;1.90;;
67063;SDS011;58476;48.072;11.970;2022-10-16T08:30:55;6.07;;;1.50;;
67063;SDS011;58476;48.072;11.970;2022-10-16T08:33:20;5.97;;;1.95;;
67063;SDS011;58476;48.072;11.970;2022-10-16T08:35:53;3.60;;;1.70;;
67063;SDS011;58476;48.072;11.970;2022-10-16T08:38:19;6.30;;;1.80;;
67063;SDS011;58476;48.072;11.970;2022-10-16T08:40:45;10.35;;;2.10;;
67063;SDS011;58476;48.072;11.970;2022-10-16T08:45:49;5.47;;;1.80;;
67063;SDS011;58476;48.072;11.970;2022-10-16T08:51:03;11.68;;;1.80;;
67063;SDS011;58476;48.072;11.970;2022-10-16T08:53:31;7.40;;;1.67;;
67063;SDS011;58476;48.072;11.970;2022-10-16T08:56:12;5.18;;;2.58;;
67063;SDS011;58476;48.072;11.970;2022-10-16T08:58:37;7.53;;;1.42;;
67063;SDS011;58476;48.072;11.970;2022-10-16T09:01:03;8.75;;;2.72;;
67063;SDS011;58476;48.072;11.970;2022-10-16T09:03:52;16.15;;;4.95;;
67063;SDS011;58476;48.072;11.970;2022-10-16T09:16:51;201.02;;;91.55;;
67063;SDS011;58476;48.072;11.970;2022-10-16T09:21:57;105.45;;;50.45;;
67063;SDS011;58476;48.072;11.970;2022-10-16T09:24:26;88.22;;;39.40;;
67063;SDS011;58476;48.072;11.970;2022-10-16T09:26:52;71.78;;;35.63;;
67063;SDS011;58476;48.072;11.970;2022-10-16T09:29:18;61.55;;;31.42;;
67063;SDS011;58476;48.072;11.970;2022-10-16T09:31:49;55.97;;;27.85;;
67063;SDS011;58476;48.072;11.970;2022-10-16T09:36:48;50.40;;;23.88;;
67063;SDS011;58476;48.072;11.970;2022-10-16T09:39:14;48.70;;;23.00;;
67063;SDS011;58476;48.072;11.970;2022-10-16T09:41:40;42.58;;;20.20;;
67063;SDS011;58476;48.072;11.970;2022-10-16T09:47:14;43.00;;;18.60;;
67063;SDS011;58476;48.072;11.970;2022-10-16T09:49:50;33.45;;;17.30;;
67063;SDS011;58476;48.072;11.970;2022-10-16T09:52:38;31.00;;;15.98;;
67063;SDS011;58476;48.072;11.970;2022-10-16T09:55:15;29.88;;;15.35;;
67063;SDS011;58476;48.072;11.970;2022-10-16T09:57:49;30.42;;;14.45;;
67063;SDS011;58476;48.072;11.970;2022-10-16T10:00:16;33.45;;;14.05;;
67063;SDS011;58476;48.072;11.970;2022-10-16T10:02:42;34.83;;;13.05;;
67063;SDS011;58476;48.072;11.970;2022-10-16T10:05:17;29.98;;;12.15;;
67063;SDS011;58476;48.072;11.970;2022-10-16T10:07:53;31.52;;;11.32;;
67063;SDS011;58476;48.072;11.970;2022-10-16T10:10:30;38.75;;;11.10;;
67063;SDS011;58476;48.072;11.970;2022-10-16T10:12:57;20.42;;;9.85;;
67063;SDS011;58476;48.072;11.970;2022-10-16T10:15:23;21.25;;;8.90;;
67063;SDS011;58476;48.072;11.970;2022-10-16T10:17:51;16.35;;;8.27;;
67063;SDS011;58476;48.072;11.970;2022-10-16T10:22:52;17.70;;;7.18;;
67063;SDS011;58476;48.072;11.970;2022-10-16T10:28:24;26.50;;;6.63;;
67063;SDS011;58476;48.072;11.970;2022-10-16T10:33:46;18.17;;;5.07;;
67063;SDS011;58476;48.072;11.970;2022-10-16T10:39:12;10.27;;;4.00;;
67063;SDS011;58476;48.072;11.970;2022-10-16T10:44:48;13.70;;;4.30;;
67063;SDS011;58476;48.072;11.970;2022-10-16T10:47:40;11.48;;;3.85;;
67063;SDS011;58476;48.072;11.970;2022-10-16T10:56:05;13.75;;;2.97;;
67063;SDS011;58476;48.072;11.970;2022-10-16T10:58:55;14.63;;;3.40;;
67063;SDS011;58476;48.072;11.970;2022-10-16T11:01:56;16.27;;;3.25;;
67063;SDS011;58476;48.072;11.970;2022-10-16T11:07:15;15.45;;;3.35;;
67063;SDS011;58476;48.072;11.970;2022-10-16T11:09:42;6.40;;;2.90;;
67063;SDS011;58476;48.072;11.970;2022-10-16T11:22:37;7.85;;;2.78;;
67063;SDS011;58476;48.072;11.970;2022-10-16T11:25:14;10.40;;;2.80;;
67063;SDS011;58476;48.072;11.970;2022-10-16T11:30:26;6.55;;;2.55;;
67063;SDS011;58476;48.072;11.970;2022-10-16T11:32:56;10.02;;;2.80;;
67063;SDS011;58476;48.072;11.970;2022-10-16T11:35:32;8.93;;;2.80;;
67063;SDS011;58476;48.072;11.970;2022-10-16T11:38:02;11.27;;;3.13;;
67063;SDS011;58476;48.072;11.970;2022-10-16T11:40:35;9.00;;;3.00;;
67063;SDS011;58476;48.072;11.970;2022-10-16T11:45:51;9.32;;;2.72;;
67063;SDS011;58476;48.072;11.970;2022-10-16T11:48:32;8.15;;;2.38;;
67063;SDS011;58476;48.072;11.970;2022-10-16T11:56:40;7.85;;;2.50;;
67063;SDS011;58476;48.072;11.970;2022-10-16T11:59:41;5.25;;;2.20;;
67063;SDS011;58476;48.072;11.970;2022-10-16T12:08:04;10.77;;;2.35;;
67063;SDS011;58476;48.072;11.970;2022-10-16T12:10:31;6.22;;;2.58;;
67063;SDS011;58476;48.072;11.970;2022-10-16T12:12:57;9.50;;;2.78;;
67063;SDS011;58476;48.072;11.970;2022-10-16T12:17:52;10.30;;;3.17;;
67063;SDS011;58476;48.072;11.970;2022-10-16T12:20:26;7.35;;;2.45;;
67063;SDS011;58476;48.072;11.970;2022-10-16T12:25:35;8.05;;;2.45;;
67063;SDS011;58476;48.072;11.970;2022-10-16T12:28:07;7.13;;;2.33;;
67063;SDS011;58476;48.072;11.970;2022-10-16T12:30:53;6.70;;;2.50;;
67063;SDS011;58476;48.072;11.970;2022-10-16T12:35:48;3.67;;;2.10;;
67063;SDS011;58476;48.072;11.970;2022-10-16T12:40:45;8.45;;;2.55;;
67063;SDS011;58476;48.072;11.970;2022-10-16T12:43:52;6.13;;;2.10;;
67063;SDS011;58476;48.072;11.970;2022-10-16T12:48:38;6.38;;;2.10;;
67063;SDS011;58476;48.072;11.970;2022-10-16T12:53:59;7.40;;;2.20;;
67063;SDS011;58476;48.072;11.970;2022-10-16T13:07:56;3.45;;;1.83;;
67063;SDS011;58476;48.072;11.970;2022-10-16T13:13:47;5.65;;;2.00;;
67063;SDS011;58476;48.072;11.970;2022-10-16T13:16:33;5.10;;;1.73;;
67063;SDS011;58476;48.072;11.970;2022-10-16T13:19:32;5.05;;;1.75;;
67063;SDS011;58476;48.072;11.970;2022-10-16T13:30:17;6.72;;;1.80;;
67063;SDS011;58476;48.072;11.970;2022-10-16T13:33:06;4.47;;;1.70;;
67063;SDS011;58476;48.072;11.970;2022-10-16T13:35:33;2.10;;;1.55;;
67063;SDS011;58476;48.072;11.970;2022-10-16T13:38:19;3.45;;;1.45;;
67063;SDS011;58476;48.072;11.970;2022-10-16T13:40:51;3.78;;;1.70;;
67063;SDS011;58476;48.072;11.970;2022-10-16T13:43:18;6.73;;;1.70;;
67063;SDS011;58476;48.072;11.970;2022-10-16T13:48:28;3.55;;;1.50;;
67063;SDS011;58476;48.072;11.970;2022-10-16T13:53:39;2.97;;;1.77;;
67063;SDS011;58476;48.072;11.970;2022-10-16T13:56:05;2.60;;;1.42;;
67063;SDS011;58476;48.072;11.970;2022-10-16T13:58:34;3.00;;;1.45;;
67063;SDS011;58476;48.072;11.970;2022-10-16T14:01:03;4.05;;;1.50;;
67063;SDS011;58476;48.072;11.970;2022-10-16T14:06:00;3.05;;;1.60;;
67063;SDS011;58476;48.072;11.970;2022-10-16T14:10:55;2.65;;;1.70;;
67063;SDS011;58476;48.072;11.970;2022-10-16T14:13:28;2.55;;;1.55;;
67063;SDS011;58476;48.072;11.970;2022-10-16T14:15:57;2.25;;;1.33;;
67063;SDS011;58476;48.072;11.970;2022-10-16T14:18:26;3.47;;;1.42;;
67063;SDS011;58476;48.072;11.970;2022-10-16T14:20:53;2.55;;;1.40;;
67063;SDS011;58476;48.072;11.970;2022-10-16T14:23:28;4.20;;;1.52;;
67063;SDS011;58476;48.072;11.970;2022-10-16T14:28:34;2.10;;;1.33;;
67063;SDS011;58476;48.072;11.970;2022-10-16T14:31:01;3.88;;;1.50;;
67063;SDS011;58476;48.072;11.970;2022-10-16T14:33:44;2.80;;;1.40;;
67063;SDS011;58476;48.072;11.970;2022-10-16T14:36:11;2.70;;;1.30;;
67063;SDS011;58476;48.072;11.970;2022-10-16T14:38:39;2.95;;;1.60;;
67063;SDS011;58476;48.072;11.970;2022-10-16T14:41:07;1.80;;;1.10;;
67063;SDS011;58476;48.072;11.970;2022-10-16T14:43:37;2.03;;;1.30;;
67063;SDS011;58476;48.072;11.970;2022-10-16T14:46:14;2.70;;;1.60;;
67063;SDS011;58476;48.072;11.970;2022-10-16T14:48:46;2.67;;;1.20;;
67063;SDS011;58476;48.072;11.970;2022-10-16T14:51:15;3.05;;;1.42;;
67063;SDS011;58476;48.072;11.970;2022-10-16T14:53:42;35.63;;;2.42;;
67063;SDS011;58476;48.072;11.970;2022-10-16T14:56:08;116.88;;;8.05;;
67063;SDS011;58476;48.072;11.970;2022-10-16T14:58:39;115.13;;;9.70;;
67063;SDS011;58476;48.072;11.970;2022-10-16T15:01:04;79.40;;;5.22;;
67063;SDS011;58476;48.072;11.970;2022-10-16T15:03:30;42.00;;;4.35;;
67063;SDS011;58476;48.072;11.970;2022-10-16T15:05:55;51.60;;;3.88;;
67063;SDS011;58476;48.072;11.970;2022-10-16T15:08:21;27.67;;;2.90;;
67063;SDS011;58476;48.072;11.970;2022-10-16T15:10:46;37.88;;;3.40;;
67063;SDS011;58476;48.072;11.970;2022-10-16T15:13:12;34.67;;;3.70;;
67063;SDS011;58476;48.072;11.970;2022-10-16T15:15:40;32.03;;;3.50;;
67063;SDS011;58476;48.072;11.970;2022-10-16T15:18:08;37.90;;;3.65;;
67063;SDS011;58476;48.072;11.970;2022-10-16T15:20:34;34.15;;;3.58;;
67063;SDS011;58476;48.072;11.970;2022-10-16T15:23:01;31.13;;;3.17;;
67063;SDS011;58476;48.072;11.970;2022-10-16T15:27:53;53.72;;;4.22;;
67063;SDS011;58476;48.072;11.970;2022-10-16T15:30:19;70.70;;;4.95;;
67063;SDS011;58476;48.072;11.970;2022-10-16T15:32:44;37.47;;;4.20;;
67063;SDS011;58476;48.072;11.970;2022-10-16T15:35:09;34.60;;;3.38;;
67063;SDS011;58476;48.072;11.970;2022-10-16T15:37:35;28.67;;;3.42;;
67063;SDS011;58476;48.072;11.970;2022-10-16T15:40:00;33.03;;;4.60;;
67063;SDS011;58476;48.072;11.970;2022-10-16T15:42:26;23.05;;;3.50;;
67063;SDS011;58476;48.072;11.970;2022-10-16T15:44:51;37.72;;;3.67;;
67063;SDS011;58476;48.072;11.970;2022-10-16T15:47:16;26.92;;;3.03;;
67063;SDS011;58476;48.072;11.970;2022-10-16T15:49:42;19.67;;;2.83;;
67063;SDS011;58476;48.072;11.970;2022-10-16T15:52:07;22.70;;;3.30;;
67063;SDS011;58476;48.072;11.970;2022-10-16T15:54:34;23.42;;;2.63;;
67063;SDS011;58476;48.072;11.970;2022-10-16T15:57:00;19.20;;;2.78;;
67063;SDS011;58476;48.072;11.970;2022-10-16T15:59:25;28.23;;;2.30;;
67063;SDS011;58476;48.072;11.970;2022-10-16T16:01:50;11.95;;;2.10;;
67063;SDS011;58476;48.072;11.970;2022-10-16T16:04:16;16.08;;;2.20;;
67063;SDS011;58476;48.072;11.970;2022-10-16T16:06:41;15.18;;;2.00;;
67063;SDS011;58476;48.072;11.970;2022-10-16T16:09:06;16.15;;;1.90;;
67063;SDS011;58476;48.072;11.970;2022-10-16T16:11:32;21.48;;;2.60;;
67063;SDS011;58476;48.072;11.970;2022-10-16T16:13:57;12.60;;;2.08;;
67063;SDS011;58476;48.072;11.970;2022-10-16T16:16:22;11.18;;;1.80;;
67063;SDS011;58476;48.072;11.970;2022-10-16T16:18:47;7.20;;;1.95;;
67063;SDS011;58476;48.072;11.970;2022-10-16T16:21:13;18.60;;;1.98;;
67063;SDS011;58476;48.072;11.970;2022-10-16T16:23:38;9.93;;;1.98;;
67063;SDS011;58476;48.072;11.970;2022-10-16T16:26:14;8.13;;;1.75;;
67063;SDS011;58476;48.072;11.970;2022-10-16T16:28:46;14.98;;;2.20;;
67063;SDS011;58476;48.072;11.970;2022-10-16T16:31:12;9.52;;;1.90;;
67063;SDS011;58476;48.072;11.970;2022-10-16T16:33:37;9.32;;;1.92;;
67063;SDS011;58476;48.072;11.970;2022-10-16T16:36:03;6.07;;;1.73;;
67063;SDS011;58476;48.072;11.970;2022-10-16T16:38:30;8.88;;;1.67;;
67063;SDS011;58476;48.072;11.970;2022-10-16T16:40:57;10.48;;;1.80;;
67063;SDS011;58476;48.072;11.970;2022-10-16T16:43:23;6.32;;;1.55;;
67063;SDS011;58476;48.072;11.970;2022-10-16T16:45:50;8.63;;;1.90;;
67063;SDS011;58476;48.072;11.970;2022-10-16T16:48:15;7.10;;;2.03;;
67063;SDS011;58476;48.072;11.970;2022-10-16T16:50:41;14.43;;;1.90;;
67063;SDS011;58476;48.072;11.970;2022-10-16T16:53:06;8.70;;;2.03;;
67063;SDS011;58476;48.072;11.970;2022-10-16T16:55:32;7.45;;;1.98;;
67063;SDS011;58476;48.072;11.970;2022-10-16T16:57:58;6.53;;;1.52;;
67063;SDS011;58476;48.072;11.970;2022-10-16T17:00:23;4.65;;;1.63;;
67063;SDS011;58476;48.072;11.970;2022-10-16T17:02:49;3.92;;;1.52;;